sensor_id;sensor_type;location;lat;lon;timestamp;P1;durP1;ratioP1;P2;durP2;ratioP2
9256;SDS011;4665;51.368;6.782;2024-01-06T00:02:13;11.73;;;8.57;;
9256;SDS011;4665;51.368;6.782;2024-01-06T00:04:38;11.57;;;8.40;;
9256;SDS011;4665;51.368;6.782;2024-01-06T00:07:03;8.80;;;7.10;;
9256;SDS011;4665;51.368;6.782;2024-01-06T00:09:28;9.67;;;7.83;;
9256;SDS011;4665;51.368;6.782;2024-01-06T00:11:53;11.27;;;8.50;;
9256;SDS011;4665;51.368;6.782;2024-01-06T00:14:19;11.37;;;8.60;;
9256;SDS011;4665;51.368;6.782;2024-01-06T00:16:44;10.23;;;8.10;;
9256;SDS011;4665;51.368;6.782;2024-01-06T00:19:09;11.63;;;8.23;;
9256;SDS011;4665;51.368;6.782;2024-01-06T00:21:35;8.70;;;7.43;;
9256;SDS011;4665;51.368;6.782;2024-01-06T00:24:00;8.87;;;7.50;;
9256;SDS011;4665;51.368;6.782;2024-01-06T00:26:25;10.63;;;7.97;;
9256;SDS011;4665;51.368;6.782;2024-01-06T00:28:50;9.20;;;7.03;;
9256;SDS011;4665;51.368;6.782;2024-01-06T00:31:16;11.63;;;8.50;;
9256;SDS011;4665;51.368;6.782;2024-01-06T00:33:44;12.90;;;9.13;;
9256;SDS011;4665;51.368;6.782;2024-01-06T00:36:09;10.63;;;8.37;;
9256;SDS011;4665;51.368;6.782;2024-01-06T00:38:35;10.33;;;8.27;;
9256;SDS011;4665;51.368;6.782;2024-01-06T00:41:00;15.83;;;9.77;;
9256;SDS011;4665;51.368;6.782;2024-01-06T00:43:26;11.07;;;7.93;;
9256;SDS011;4665;51.368;6.782;2024-01-06T00:45:52;13.20;;;9.57;;
9256;SDS011;4665;51.368;6.782;2024-01-06T00:48:17;9.30;;;7.37;;
9256;SDS011;4665;51.368;6.782;2024-01-06T00:50:42;9.33;;;7.23;;
9256;SDS011;4665;51.368;6.782;2024-01-06T00:53:07;10.80;;;8.57;;
9256;SDS011;4665;51.368;6.782;2024-01-06T00:55:32;10.23;;;8.30;;
9256;SDS011;4665;51.368;6.782;2024-01-06T00:57:58;10.50;;;7.97;;
9256;SDS011;4665;51.368;6.782;2024-01-06T01:00:23;9.00;;;7.93;;
9256;SDS011;4665;51.368;6.782;2024-01-06T01:02:48;8.53;;;7.47;;
9256;SDS011;4665;51.368;6.782;2024-01-06T01:05:13;9.53;;;7.63;;
9256;SDS011;4665;51.368;6.782;2024-01-06T01:07:39;11.60;;;8.67;;
9256;SDS011;4665;51.368;6.782;2024-01-06T01:10:04;9.70;;;8.00;;
9256;SDS011;4665;51.368;6.782;2024-01-06T01:12:30;8.77;;;7.80;;
9256;SDS011;4665;51.368;6.782;2024-01-06T01:14:56;9.27;;;7.60;;
9256;SDS011;4665;51.368;6.782;2024-01-06T01:17:21;11.37;;;8.37;;
9256;SDS011;4665;51.368;6.782;2024-01-06T01:19:46;11.03;;;8.90;;
9256;SDS011;4665;51.368;6.782;2024-01-06T01:22:12;9.17;;;7.40;;
9256;SDS011;4665;51.368;6.782;2024-01-06T01:24:37;13.90;;;9.97;;
9256;SDS011;4665;51.368;6.782;2024-01-06T01:27:02;9.20;;;7.37;;
9256;SDS011;4665;51.368;6.782;2024-01-06T01:29:28;11.33;;;9.07;;
9256;SDS011;4665;51.368;6.782;2024-01-06T01:31:53;15.70;;;10.43;;
9256;SDS011;4665;51.368;6.782;2024-01-06T01:34:18;11.63;;;8.30;;
9256;SDS011;4665;51.368;6.782;2024-01-06T01:36:44;11.30;;;8.13;;
9256;SDS011;4665;51.368;6.782;2024-01-06T01:39:09;10.10;;;7.73;;
9256;SDS011;4665;51.368;6.782;2024-01-06T01:41:35;12.23;;;9.40;;
9256;SDS011;4665;51.368;6.782;2024-01-06T01:44:00;14.67;;;10.10;;
9256;SDS011;4665;51.368;6.782;2024-01-06T01:46:25;13.20;;;9.80;;
9256;SDS011;4665;51.368;6.782;2024-01-06T01:48:51;13.53;;;9.43;;
9256;SDS011;4665;51.368;6.782;2024-01-06T01:51:17;16.13;;;10.63;;
9256;SDS011;4665;51.368;6.782;2024-01-06T01:53:43;15.43;;;10.53;;
9256;SDS011;4665;51.368;6.782;2024-01-06T01:56:09;16.23;;;10.67;;
9256;SDS011;4665;51.368;6.782;2024-01-06T01:58:34;12.30;;;9.37;;
9256;SDS011;4665;51.368;6.782;2024-01-06T02:00:59;14.40;;;10.23;;
9256;SDS011;4665;51.368;6.782;2024-01-06T02:03:24;13.73;;;10.30;;
9256;SDS011;4665;51.368;6.782;2024-01-06T02:05:50;14.47;;;10.37;;
9256;SDS011;4665;51.368;6.782;2024-01-06T02:08:15;11.17;;;9.07;;
9256;SDS011;4665;51.368;6.782;2024-01-06T02:10:40;10.23;;;7.80;;
9256;SDS011;4665;51.368;6.782;2024-01-06T02:13:11;11.20;;;7.73;;
9256;SDS011;4665;51.368;6.782;2024-01-06T02:15:37;9.33;;;7.60;;
9256;SDS011;4665;51.368;6.782;2024-01-06T02:18:02;13.23;;;9.57;;
9256;SDS011;4665;51.368;6.782;2024-01-06T02:20:28;12.90;;;8.87;;
9256;SDS011;4665;51.368;6.782;2024-01-06T02:22:55;12.63;;;9.30;;
9256;SDS011;4665;51.368;6.782;2024-01-06T02:25:22;14.90;;;9.37;;
9256;SDS011;4665;51.368;6.782;2024-01-06T02:27:47;14.70;;;10.07;;
9256;SDS011;4665;51.368;6.782;2024-01-06T02:30:12;14.23;;;10.60;;
9256;SDS011;4665;51.368;6.782;2024-01-06T02:32:37;11.20;;;8.57;;
9256;SDS011;4665;51.368;6.782;2024-01-06T02:35:03;15.57;;;9.87;;
9256;SDS011;4665;51.368;6.782;2024-01-06T02:37:28;15.30;;;10.57;;
9256;SDS011;4665;51.368;6.782;2024-01-06T02:39:53;12.57;;;9.03;;
9256;SDS011;4665;51.368;6.782;2024-01-06T02:42:18;15.27;;;10.23;;
9256;SDS011;4665;51.368;6.782;2024-01-06T02:44:44;14.03;;;10.07;;
9256;SDS011;4665;51.368;6.782;2024-01-06T02:47:09;13.87;;;9.93;;
9256;SDS011;4665;51.368;6.782;2024-01-06T02:49:34;13.93;;;9.50;;
9256;SDS011;4665;51.368;6.782;2024-01-06T02:52:00;17.27;;;10.53;;
9256;SDS011;4665;51.368;6.782;2024-01-06T02:54:25;14.23;;;10.47;;
9256;SDS011;4665;51.368;6.782;2024-01-06T02:56:50;17.10;;;10.87;;
9256;SDS011;4665;51.368;6.782;2024-01-06T02:59:15;13.53;;;9.70;;
9256;SDS011;4665;51.368;6.782;2024-01-06T03:01:40;13.83;;;9.50;;
9256;SDS011;4665;51.368;6.782;2024-01-06T03:04:06;16.60;;;11.10;;
9256;SDS011;4665;51.368;6.782;2024-01-06T03:06:31;16.23;;;10.50;;
9256;SDS011;4665;51.368;6.782;2024-01-06T03:08:56;14.40;;;9.97;;
9256;SDS011;4665;51.368;6.782;2024-01-06T03:11:22;15.57;;;10.23;;
9256;SDS011;4665;51.368;6.782;2024-01-06T03:13:47;15.13;;;10.63;;
9256;SDS011;4665;51.368;6.782;2024-01-06T03:16:12;19.77;;;10.50;;
9256;SDS011;4665;51.368;6.782;2024-01-06T03:18:38;14.80;;;10.17;;
9256;SDS011;4665;51.368;6.782;2024-01-06T03:21:03;17.10;;;10.70;;
9256;SDS011;4665;51.368;6.782;2024-01-06T03:23:28;13.90;;;8.63;;
9256;SDS011;4665;51.368;6.782;2024-01-06T03:25:54;13.13;;;8.37;;
9256;SDS011;4665;51.368;6.782;2024-01-06T03:28:19;12.80;;;8.30;;
9256;SDS011;4665;51.368;6.782;2024-01-06T03:30:44;11.37;;;7.47;;
9256;SDS011;4665;51.368;6.782;2024-01-06T03:33:09;10.87;;;6.93;;
9256;SDS011;4665;51.368;6.782;2024-01-06T03:35:35;10.07;;;6.50;;
9256;SDS011;4665;51.368;6.782;2024-01-06T03:38:00;10.13;;;7.23;;
9256;SDS011;4665;51.368;6.782;2024-01-06T03:40:25;9.23;;;6.10;;
9256;SDS011;4665;51.368;6.782;2024-01-06T03:42:50;9.47;;;6.40;;
9256;SDS011;4665;51.368;6.782;2024-01-06T03:45:15;10.93;;;7.00;;
9256;SDS011;4665;51.368;6.782;2024-01-06T03:47:41;12.97;;;7.33;;
9256;SDS011;4665;51.368;6.782;2024-01-06T03:50:06;12.87;;;6.33;;
9256;SDS011;4665;51.368;6.782;2024-01-06T03:52:31;10.90;;;6.13;;
9256;SDS011;4665;51.368;6.782;2024-01-06T03:54:57;10.23;;;6.10;;
9256;SDS011;4665;51.368;6.782;2024-01-06T03:57:22;9.93;;;6.73;;
9256;SDS011;4665;51.368;6.782;2024-01-06T03:59:47;7.63;;;5.77;;
9256;SDS011;4665;51.368;6.782;2024-01-06T04:02:12;11.20;;;6.77;;
9256;SDS011;4665;51.368;6.782;2024-01-06T04:04:38;9.70;;;6.10;;
9256;SDS011;4665;51.368;6.782;2024-01-06T04:07:03;8.63;;;6.03;;
9256;SDS011;4665;51.368;6.782;2024-01-06T04:09:28;11.47;;;6.43;;
9256;SDS011;4665;51.368;6.782;2024-01-06T04:11:53;9.63;;;6.77;;
9256;SDS011;4665;51.368;6.782;2024-01-06T04:14:19;8.83;;;5.90;;
9256;SDS011;4665;51.368;6.782;2024-01-06T04:16:44;11.70;;;6.47;;
9256;SDS011;4665;51.368;6.782;2024-01-06T04:19:09;9.57;;;7.13;;
9256;SDS011;4665;51.368;6.782;2024-01-06T04:21:36;13.90;;;7.10;;
9256;SDS011;4665;51.368;6.782;2024-01-06T04:24:02;9.97;;;6.50;;
9256;SDS011;4665;51.368;6.782;2024-01-06T04:26:27;9.23;;;6.73;;
9256;SDS011;4665;51.368;6.782;2024-01-06T04:28:52;11.43;;;6.77;;
9256;SDS011;4665;51.368;6.782;2024-01-06T04:31:17;12.07;;;6.67;;
9256;SDS011;4665;51.368;6.782;2024-01-06T04:33:42;11.13;;;6.23;;
9256;SDS011;4665;51.368;6.782;2024-01-06T04:36:08;8.97;;;5.93;;
9256;SDS011;4665;51.368;6.782;2024-01-06T04:38:33;9.17;;;5.63;;
9256;SDS011;4665;51.368;6.782;2024-01-06T04:40:58;8.40;;;6.00;;
9256;SDS011;4665;51.368;6.782;2024-01-06T04:43:23;9.83;;;5.97;;
9256;SDS011;4665;51.368;6.782;2024-01-06T04:45:49;8.70;;;5.87;;
9256;SDS011;4665;51.368;6.782;2024-01-06T04:48:15;6.93;;;5.63;;
9256;SDS011;4665;51.368;6.782;2024-01-06T04:50:40;9.03;;;5.90;;
9256;SDS011;4665;51.368;6.782;2024-01-06T04:53:05;7.37;;;5.20;;
9256;SDS011;4665;51.368;6.782;2024-01-06T04:55:31;7.70;;;5.13;;
9256;SDS011;4665;51.368;6.782;2024-01-06T04:57:56;7.17;;;5.23;;
9256;SDS011;4665;51.368;6.782;2024-01-06T05:00:21;7.80;;;5.17;;
9256;SDS011;4665;51.368;6.782;2024-01-06T05:02:47;5.73;;;4.50;;
9256;SDS011;4665;51.368;6.782;2024-01-06T05:05:12;8.00;;;4.97;;
9256;SDS011;4665;51.368;6.782;2024-01-06T05:07:37;5.63;;;4.70;;
9256;SDS011;4665;51.368;6.782;2024-01-06T05:10:02;7.27;;;5.23;;
9256;SDS011;4665;51.368;6.782;2024-01-06T05:12:28;8.10;;;5.50;;
9256;SDS011;4665;51.368;6.782;2024-01-06T05:14:53;9.77;;;5.30;;
9256;SDS011;4665;51.368;6.782;2024-01-06T05:17:18;7.67;;;5.43;;
9256;SDS011;4665;51.368;6.782;2024-01-06T05:19:43;6.90;;;5.07;;
9256;SDS011;4665;51.368;6.782;2024-01-06T05:22:09;7.67;;;5.30;;
9256;SDS011;4665;51.368;6.782;2024-01-06T05:24:34;7.40;;;5.30;;
9256;SDS011;4665;51.368;6.782;2024-01-06T05:26:59;7.33;;;5.20;;
9256;SDS011;4665;51.368;6.782;2024-01-06T05:29:24;7.37;;;4.67;;
9256;SDS011;4665;51.368;6.782;2024-01-06T05:31:51;6.90;;;4.83;;
9256;SDS011;4665;51.368;6.782;2024-01-06T05:34:16;6.97;;;5.47;;
9256;SDS011;4665;51.368;6.782;2024-01-06T05:36:41;6.70;;;5.17;;
9256;SDS011;4665;51.368;6.782;2024-01-06T05:39:07;9.50;;;6.50;;
9256;SDS011;4665;51.368;6.782;2024-01-06T05:41:39;9.70;;;5.90;;
9256;SDS011;4665;51.368;6.782;2024-01-06T05:44:04;8.73;;;6.00;;
9256;SDS011;4665;51.368;6.782;2024-01-06T05:46:30;9.97;;;5.87;;
9256;SDS011;4665;51.368;6.782;2024-01-06T05:48:55;8.87;;;6.07;;
9256;SDS011;4665;51.368;6.782;2024-01-06T05:51:21;9.60;;;5.70;;
9256;SDS011;4665;51.368;6.782;2024-01-06T05:53:46;8.50;;;6.00;;
9256;SDS011;4665;51.368;6.782;2024-01-06T05:56:11;9.13;;;6.17;;
9256;SDS011;4665;51.368;6.782;2024-01-06T05:58:37;8.30;;;5.80;;
9256;SDS011;4665;51.368;6.782;2024-01-06T06:01:02;9.30;;;6.43;;
9256;SDS011;4665;51.368;6.782;2024-01-06T06:03:27;10.43;;;6.33;;
9256;SDS011;4665;51.368;6.782;2024-01-06T06:05:53;9.87;;;6.53;;
9256;SDS011;4665;51.368;6.782;2024-01-06T06:08:18;9.77;;;6.00;;
9256;SDS011;4665;51.368;6.782;2024-01-06T06:10:43;10.23;;;6.80;;
9256;SDS011;4665;51.368;6.782;2024-01-06T06:13:25;8.60;;;5.97;;
9256;SDS011;4665;51.368;6.782;2024-01-06T06:15:51;9.87;;;6.77;;
9256;SDS011;4665;51.368;6.782;2024-01-06T06:18:16;12.17;;;7.13;;
9256;SDS011;4665;51.368;6.782;2024-01-06T06:20:42;9.80;;;6.73;;
9256;SDS011;4665;51.368;6.782;2024-01-06T06:23:08;9.83;;;6.30;;
9256;SDS011;4665;51.368;6.782;2024-01-06T06:25:34;9.93;;;6.27;;
9256;SDS011;4665;51.368;6.782;2024-01-06T06:27:59;10.37;;;7.30;;
9256;SDS011;4665;51.368;6.782;2024-01-06T06:30:24;9.27;;;6.23;;
9256;SDS011;4665;51.368;6.782;2024-01-06T06:32:51;9.77;;;6.67;;
9256;SDS011;4665;51.368;6.782;2024-01-06T06:35:16;14.13;;;6.80;;
9256;SDS011;4665;51.368;6.782;2024-01-06T06:37:41;10.77;;;7.27;;
9256;SDS011;4665;51.368;6.782;2024-01-06T06:40:06;9.80;;;6.27;;
9256;SDS011;4665;51.368;6.782;2024-01-06T06:42:32;9.97;;;6.93;;
9256;SDS011;4665;51.368;6.782;2024-01-06T06:44:57;8.87;;;6.40;;
9256;SDS011;4665;51.368;6.782;2024-01-06T06:47:22;11.37;;;6.57;;
9256;SDS011;4665;51.368;6.782;2024-01-06T06:49:48;9.97;;;6.43;;
9256;SDS011;4665;51.368;6.782;2024-01-06T06:52:13;15.97;;;7.40;;
9256;SDS011;4665;51.368;6.782;2024-01-06T06:54:38;12.57;;;7.73;;
9256;SDS011;4665;51.368;6.782;2024-01-06T06:57:04;11.90;;;8.07;;
9256;SDS011;4665;51.368;6.782;2024-01-06T06:59:29;9.17;;;6.57;;
9256;SDS011;4665;51.368;6.782;2024-01-06T07:01:54;9.77;;;6.70;;
9256;SDS011;4665;51.368;6.782;2024-01-06T07:04:20;10.73;;;6.57;;
9256;SDS011;4665;51.368;6.782;2024-01-06T07:06:45;11.13;;;6.70;;
9256;SDS011;4665;51.368;6.782;2024-01-06T07:09:10;11.53;;;7.47;;
9256;SDS011;4665;51.368;6.782;2024-01-06T07:11:35;12.20;;;7.47;;
9256;SDS011;4665;51.368;6.782;2024-01-06T07:14:00;13.50;;;7.73;;
9256;SDS011;4665;51.368;6.782;2024-01-06T07:16:26;11.30;;;7.10;;
9256;SDS011;4665;51.368;6.782;2024-01-06T07:18:51;9.83;;;6.93;;
9256;SDS011;4665;51.368;6.782;2024-01-06T07:21:16;12.17;;;6.43;;
9256;SDS011;4665;51.368;6.782;2024-01-06T07:23:42;12.20;;;6.87;;
9256;SDS011;4665;51.368;6.782;2024-01-06T07:26:07;8.67;;;6.47;;
9256;SDS011;4665;51.368;6.782;2024-01-06T07:28:33;11.43;;;7.53;;
9256;SDS011;4665;51.368;6.782;2024-01-06T07:30:59;11.97;;;6.63;;
9256;SDS011;4665;51.368;6.782;2024-01-06T07:33:25;8.67;;;5.97;;
9256;SDS011;4665;51.368;6.782;2024-01-06T07:35:50;9.93;;;6.27;;
9256;SDS011;4665;51.368;6.782;2024-01-06T07:38:15;10.50;;;6.80;;
9256;SDS011;4665;51.368;6.782;2024-01-06T07:40:40;10.77;;;6.80;;
9256;SDS011;4665;51.368;6.782;2024-01-06T07:43:07;13.03;;;7.17;;
9256;SDS011;4665;51.368;6.782;2024-01-06T07:45:32;11.40;;;7.17;;
9256;SDS011;4665;51.368;6.782;2024-01-06T07:47:58;10.60;;;7.00;;
9256;SDS011;4665;51.368;6.782;2024-01-06T07:50:23;9.80;;;6.20;;
9256;SDS011;4665;51.368;6.782;2024-01-06T07:52:48;10.93;;;6.47;;
9256;SDS011;4665;51.368;6.782;2024-01-06T07:55:13;13.63;;;8.00;;
9256;SDS011;4665;51.368;6.782;2024-01-06T07:57:39;13.40;;;8.27;;
9256;SDS011;4665;51.368;6.782;2024-01-06T08:00:04;10.90;;;7.10;;
9256;SDS011;4665;51.368;6.782;2024-01-06T08:02:30;13.17;;;8.00;;
9256;SDS011;4665;51.368;6.782;2024-01-06T08:04:55;12.63;;;8.20;;
9256;SDS011;4665;51.368;6.782;2024-01-06T08:07:21;14.27;;;8.37;;
9256;SDS011;4665;51.368;6.782;2024-01-06T08:09:46;13.57;;;8.27;;
9256;SDS011;4665;51.368;6.782;2024-01-06T08:12:11;13.20;;;7.57;;
9256;SDS011;4665;51.368;6.782;2024-01-06T08:14:37;14.30;;;6.93;;
9256;SDS011;4665;51.368;6.782;2024-01-06T08:17:02;16.47;;;8.07;;
9256;SDS011;4665;51.368;6.782;2024-01-06T08:19:27;11.60;;;7.90;;
9256;SDS011;4665;51.368;6.782;2024-01-06T08:21:55;14.50;;;7.13;;
9256;SDS011;4665;51.368;6.782;2024-01-06T08:24:20;14.00;;;7.97;;
9256;SDS011;4665;51.368;6.782;2024-01-06T08:26:45;15.70;;;7.50;;
9256;SDS011;4665;51.368;6.782;2024-01-06T08:29:10;18.63;;;9.17;;
9256;SDS011;4665;51.368;6.782;2024-01-06T08:31:35;15.97;;;8.43;;
9256;SDS011;4665;51.368;6.782;2024-01-06T08:34:01;19.90;;;9.10;;
9256;SDS011;4665;51.368;6.782;2024-01-06T08:36:26;18.03;;;9.57;;
9256;SDS011;4665;51.368;6.782;2024-01-06T08:38:51;22.10;;;10.27;;
9256;SDS011;4665;51.368;6.782;2024-01-06T08:41:16;18.83;;;10.03;;
9256;SDS011;4665;51.368;6.782;2024-01-06T08:43:42;18.00;;;9.17;;
9256;SDS011;4665;51.368;6.782;2024-01-06T08:46:07;18.93;;;9.43;;
9256;SDS011;4665;51.368;6.782;2024-01-06T08:48:32;16.40;;;9.80;;
9256;SDS011;4665;51.368;6.782;2024-01-06T08:50:57;19.00;;;9.97;;
9256;SDS011;4665;51.368;6.782;2024-01-06T08:53:23;18.23;;;9.57;;
9256;SDS011;4665;51.368;6.782;2024-01-06T08:55:48;19.63;;;9.97;;
9256;SDS011;4665;51.368;6.782;2024-01-06T08:58:13;21.10;;;9.20;;
9256;SDS011;4665;51.368;6.782;2024-01-06T09:00:38;19.93;;;10.00;;
9256;SDS011;4665;51.368;6.782;2024-01-06T09:03:04;20.03;;;10.73;;
9256;SDS011;4665;51.368;6.782;2024-01-06T09:05:29;24.43;;;11.07;;
9256;SDS011;4665;51.368;6.782;2024-01-06T09:07:54;24.87;;;10.97;;
9256;SDS011;4665;51.368;6.782;2024-01-06T09:10:19;17.43;;;9.70;;
9256;SDS011;4665;51.368;6.782;2024-01-06T09:12:45;18.67;;;9.77;;
9256;SDS011;4665;51.368;6.782;2024-01-06T09:15:10;21.60;;;9.50;;
9256;SDS011;4665;51.368;6.782;2024-01-06T09:17:35;22.03;;;10.77;;
9256;SDS011;4665;51.368;6.782;2024-01-06T09:20:01;19.03;;;10.80;;
9256;SDS011;4665;51.368;6.782;2024-01-06T09:22:26;19.17;;;10.43;;
9256;SDS011;4665;51.368;6.782;2024-01-06T09:24:51;19.10;;;10.47;;
9256;SDS011;4665;51.368;6.782;2024-01-06T09:27:19;20.83;;;12.17;;
9256;SDS011;4665;51.368;6.782;2024-01-06T09:29:44;20.70;;;11.23;;
9256;SDS011;4665;51.368;6.782;2024-01-06T09:32:09;27.47;;;12.23;;
9256;SDS011;4665;51.368;6.782;2024-01-06T09:34:35;23.17;;;12.43;;
9256;SDS011;4665;51.368;6.782;2024-01-06T09:37:00;24.63;;;12.33;;
9256;SDS011;4665;51.368;6.782;2024-01-06T09:39:25;24.73;;;12.67;;
9256;SDS011;4665;51.368;6.782;2024-01-06T09:41:50;27.27;;;12.80;;
9256;SDS011;4665;51.368;6.782;2024-01-06T09:44:16;22.40;;;11.57;;
9256;SDS011;4665;51.368;6.782;2024-01-06T09:46:42;23.57;;;11.67;;
9256;SDS011;4665;51.368;6.782;2024-01-06T09:49:08;24.37;;;11.40;;
9256;SDS011;4665;51.368;6.782;2024-01-06T09:51:34;20.57;;;11.00;;
9256;SDS011;4665;51.368;6.782;2024-01-06T09:54:01;16.20;;;9.00;;
9256;SDS011;4665;51.368;6.782;2024-01-06T09:56:28;17.30;;;9.30;;
9256;SDS011;4665;51.368;6.782;2024-01-06T09:58:54;17.43;;;9.70;;
9256;SDS011;4665;51.368;6.782;2024-01-06T10:01:19;21.53;;;9.67;;
9256;SDS011;4665;51.368;6.782;2024-01-06T10:03:45;18.97;;;10.27;;
9256;SDS011;4665;51.368;6.782;2024-01-06T10:06:13;15.17;;;9.13;;
9256;SDS011;4665;51.368;6.782;2024-01-06T10:08:39;19.97;;;9.10;;
9256;SDS011;4665;51.368;6.782;2024-01-06T10:11:07;17.10;;;9.13;;
9256;SDS011;4665;51.368;6.782;2024-01-06T10:13:35;17.90;;;9.57;;
9256;SDS011;4665;51.368;6.782;2024-01-06T10:16:02;19.23;;;8.60;;
9256;SDS011;4665;51.368;6.782;2024-01-06T10:18:27;20.93;;;9.53;;
9256;SDS011;4665;51.368;6.782;2024-01-06T10:20:54;22.70;;;10.80;;
9256;SDS011;4665;51.368;6.782;2024-01-06T10:23:21;26.73;;;11.60;;
9256;SDS011;4665;51.368;6.782;2024-01-06T10:25:47;23.90;;;11.57;;
9256;SDS011;4665;51.368;6.782;2024-01-06T10:28:12;21.43;;;10.17;;
9256;SDS011;4665;51.368;6.782;2024-01-06T10:30:40;19.53;;;9.93;;
9256;SDS011;4665;51.368;6.782;2024-01-06T10:33:09;14.73;;;8.03;;
9256;SDS011;4665;51.368;6.782;2024-01-06T10:35:34;15.43;;;8.33;;
9256;SDS011;4665;51.368;6.782;2024-01-06T10:38:01;14.53;;;7.53;;
9256;SDS011;4665;51.368;6.782;2024-01-06T10:40:26;13.60;;;7.50;;
9256;SDS011;4665;51.368;6.782;2024-01-06T10:42:52;17.37;;;7.67;;
9256;SDS011;4665;51.368;6.782;2024-01-06T10:45:17;11.80;;;7.60;;
9256;SDS011;4665;51.368;6.782;2024-01-06T10:47:42;11.67;;;7.03;;
9256;SDS011;4665;51.368;6.782;2024-01-06T10:50:08;12.63;;;6.53;;
9256;SDS011;4665;51.368;6.782;2024-01-06T10:52:34;12.83;;;6.27;;
9256;SDS011;4665;51.368;6.782;2024-01-06T10:55:00;10.47;;;6.40;;
9256;SDS011;4665;51.368;6.782;2024-01-06T10:57:26;12.03;;;6.87;;
9256;SDS011;4665;51.368;6.782;2024-01-06T10:59:53;8.10;;;5.43;;
9256;SDS011;4665;51.368;6.782;2024-01-06T11:02:18;7.93;;;5.90;;
9256;SDS011;4665;51.368;6.782;2024-01-06T11:04:44;10.23;;;6.10;;
9256;SDS011;4665;51.368;6.782;2024-01-06T11:07:10;10.97;;;6.60;;
9256;SDS011;4665;51.368;6.782;2024-01-06T11:09:35;11.07;;;6.37;;
9256;SDS011;4665;51.368;6.782;2024-01-06T11:12:02;12.67;;;6.83;;
9256;SDS011;4665;51.368;6.782;2024-01-06T11:14:27;12.07;;;6.67;;
9256;SDS011;4665;51.368;6.782;2024-01-06T11:16:53;10.77;;;7.13;;
9256;SDS011;4665;51.368;6.782;2024-01-06T11:24:48;13.13;;;7.77;;
9256;SDS011;4665;51.368;6.782;2024-01-06T11:27:17;19.87;;;9.57;;
9256;SDS011;4665;51.368;6.782;2024-01-06T11:29:43;21.20;;;10.00;;
9256;SDS011;4665;51.368;6.782;2024-01-06T11:34:52;19.77;;;11.33;;
9256;SDS011;4665;51.368;6.782;2024-01-06T11:37:28;21.13;;;10.60;;
9256;SDS011;4665;51.368;6.782;2024-01-06T11:39:59;18.60;;;10.17;;
9256;SDS011;4665;51.368;6.782;2024-01-06T11:42:31;17.47;;;10.80;;
9256;SDS011;4665;51.368;6.782;2024-01-06T11:44:56;23.90;;;11.53;;
9256;SDS011;4665;51.368;6.782;2024-01-06T11:47:26;20.40;;;11.37;;
9256;SDS011;4665;51.368;6.782;2024-01-06T11:49:53;22.00;;;10.77;;
9256;SDS011;4665;51.368;6.782;2024-01-06T11:52:19;20.13;;;10.87;;
9256;SDS011;4665;51.368;6.782;2024-01-06T11:54:44;20.90;;;10.77;;
9256;SDS011;4665;51.368;6.782;2024-01-06T11:57:10;17.47;;;9.37;;
9256;SDS011;4665;51.368;6.782;2024-01-06T11:59:35;19.80;;;11.60;;
9256;SDS011;4665;51.368;6.782;2024-01-06T12:02:00;23.87;;;11.03;;
9256;SDS011;4665;51.368;6.782;2024-01-06T12:04:25;23.63;;;10.27;;
9256;SDS011;4665;51.368;6.782;2024-01-06T12:06:52;23.30;;;10.90;;
9256;SDS011;4665;51.368;6.782;2024-01-06T12:09:17;22.87;;;11.63;;
9256;SDS011;4665;51.368;6.782;2024-01-06T12:11:44;20.57;;;10.87;;
9256;SDS011;4665;51.368;6.782;2024-01-06T12:14:10;21.17;;;10.30;;
9256;SDS011;4665;51.368;6.782;2024-01-06T12:16:36;26.60;;;11.03;;
9256;SDS011;4665;51.368;6.782;2024-01-06T12:19:01;21.00;;;10.93;;
9256;SDS011;4665;51.368;6.782;2024-01-06T12:21:28;23.70;;;10.70;;
9256;SDS011;4665;51.368;6.782;2024-01-06T12:23:54;21.60;;;10.77;;
9256;SDS011;4665;51.368;6.782;2024-01-06T12:26:19;21.57;;;10.03;;
9256;SDS011;4665;51.368;6.782;2024-01-06T12:28:45;22.97;;;10.70;;
9256;SDS011;4665;51.368;6.782;2024-01-06T12:31:10;18.00;;;9.97;;
9256;SDS011;4665;51.368;6.782;2024-01-06T12:33:37;17.50;;;10.23;;
9256;SDS011;4665;51.368;6.782;2024-01-06T12:36:03;17.73;;;9.80;;
9256;SDS011;4665;51.368;6.782;2024-01-06T12:38:29;19.20;;;9.17;;
9256;SDS011;4665;51.368;6.782;2024-01-06T12:40:55;17.87;;;9.20;;
9256;SDS011;4665;51.368;6.782;2024-01-06T12:43:20;19.73;;;10.00;;
9256;SDS011;4665;51.368;6.782;2024-01-06T12:45:45;19.20;;;9.67;;
9256;SDS011;4665;51.368;6.782;2024-01-06T12:48:10;18.43;;;9.30;;
9256;SDS011;4665;51.368;6.782;2024-01-06T12:50:36;25.77;;;10.00;;
9256;SDS011;4665;51.368;6.782;2024-01-06T12:53:01;17.27;;;8.97;;
9256;SDS011;4665;51.368;6.782;2024-01-06T12:55:27;18.60;;;8.80;;
9256;SDS011;4665;51.368;6.782;2024-01-06T12:57:52;13.40;;;7.87;;
9256;SDS011;4665;51.368;6.782;2024-01-06T13:00:17;11.27;;;7.37;;
9256;SDS011;4665;51.368;6.782;2024-01-06T13:02:43;14.47;;;8.07;;
9256;SDS011;4665;51.368;6.782;2024-01-06T13:05:08;16.37;;;8.17;;
9256;SDS011;4665;51.368;6.782;2024-01-06T13:07:34;16.07;;;7.70;;
9256;SDS011;4665;51.368;6.782;2024-01-06T13:09:59;12.57;;;7.90;;
9256;SDS011;4665;51.368;6.782;2024-01-06T13:12:24;12.47;;;7.30;;
9256;SDS011;4665;51.368;6.782;2024-01-06T13:14:50;12.33;;;7.60;;
9256;SDS011;4665;51.368;6.782;2024-01-06T13:17:16;20.47;;;8.60;;
9256;SDS011;4665;51.368;6.782;2024-01-06T13:19:41;13.70;;;7.63;;
9256;SDS011;4665;51.368;6.782;2024-01-06T13:22:06;15.43;;;8.07;;
9256;SDS011;4665;51.368;6.782;2024-01-06T13:24:32;12.90;;;7.23;;
9256;SDS011;4665;51.368;6.782;2024-01-06T13:26:57;15.70;;;7.97;;
9256;SDS011;4665;51.368;6.782;2024-01-06T13:29:23;16.20;;;8.17;;
9256;SDS011;4665;51.368;6.782;2024-01-06T13:31:49;11.47;;;6.37;;
9256;SDS011;4665;51.368;6.782;2024-01-06T13:34:14;10.70;;;6.57;;
9256;SDS011;4665;51.368;6.782;2024-01-06T13:36:39;15.27;;;8.13;;
9256;SDS011;4665;51.368;6.782;2024-01-06T13:39:04;15.23;;;7.87;;
9256;SDS011;4665;51.368;6.782;2024-01-06T13:41:31;14.00;;;8.47;;
9256;SDS011;4665;51.368;6.782;2024-01-06T13:43:56;15.47;;;8.97;;
9256;SDS011;4665;51.368;6.782;2024-01-06T13:46:22;15.77;;;8.70;;
9256;SDS011;4665;51.368;6.782;2024-01-06T13:48:47;19.23;;;10.20;;
9256;SDS011;4665;51.368;6.782;2024-01-06T13:51:12;17.03;;;9.30;;
9256;SDS011;4665;51.368;6.782;2024-01-06T13:53:37;18.27;;;9.63;;
9256;SDS011;4665;51.368;6.782;2024-01-06T13:56:03;18.70;;;9.33;;
9256;SDS011;4665;51.368;6.782;2024-01-06T13:58:28;20.63;;;10.37;;
9256;SDS011;4665;51.368;6.782;2024-01-06T14:00:54;18.20;;;10.67;;
9256;SDS011;4665;51.368;6.782;2024-01-06T14:03:19;24.27;;;10.70;;
9256;SDS011;4665;51.368;6.782;2024-01-06T14:05:44;22.17;;;10.77;;
9256;SDS011;4665;51.368;6.782;2024-01-06T14:08:09;18.57;;;9.70;;
9256;SDS011;4665;51.368;6.782;2024-01-06T14:10:35;16.97;;;9.50;;
9256;SDS011;4665;51.368;6.782;2024-01-06T14:13:00;16.50;;;8.80;;
9256;SDS011;4665;51.368;6.782;2024-01-06T14:15:25;14.20;;;8.73;;
9256;SDS011;4665;51.368;6.782;2024-01-06T14:17:51;15.10;;;8.83;;
9256;SDS011;4665;51.368;6.782;2024-01-06T14:20:17;16.17;;;8.70;;
9256;SDS011;4665;51.368;6.782;2024-01-06T14:22:46;15.17;;;8.83;;
9256;SDS011;4665;51.368;6.782;2024-01-06T14:25:12;17.17;;;8.97;;
9256;SDS011;4665;51.368;6.782;2024-01-06T14:27:37;15.93;;;8.90;;
9256;SDS011;4665;51.368;6.782;2024-01-06T14:30:02;14.40;;;9.57;;
9256;SDS011;4665;51.368;6.782;2024-01-06T14:32:27;16.10;;;9.27;;
9256;SDS011;4665;51.368;6.782;2024-01-06T14:34:54;15.57;;;9.70;;
9256;SDS011;4665;51.368;6.782;2024-01-06T14:37:19;20.13;;;10.27;;
9256;SDS011;4665;51.368;6.782;2024-01-06T14:39:44;20.27;;;10.57;;
9256;SDS011;4665;51.368;6.782;2024-01-06T14:42:10;21.67;;;10.87;;
9256;SDS011;4665;51.368;6.782;2024-01-06T14:44:35;22.43;;;10.87;;
9256;SDS011;4665;51.368;6.782;2024-01-06T14:47:00;20.13;;;12.33;;
9256;SDS011;4665;51.368;6.782;2024-01-06T14:49:26;27.20;;;12.03;;
9256;SDS011;4665;51.368;6.782;2024-01-06T14:51:51;24.43;;;13.27;;
9256;SDS011;4665;51.368;6.782;2024-01-06T14:54:16;15.87;;;9.50;;
9256;SDS011;4665;51.368;6.782;2024-01-06T14:56:41;14.57;;;8.80;;
9256;SDS011;4665;51.368;6.782;2024-01-06T14:59:07;14.80;;;8.93;;